createdAt,value
2023-02-28T00:01:43.324Z,1.86
2023-02-28T00:04:12.256Z,1.91
2023-02-28T00:06:41.081Z,1.93
2023-02-28T00:09:09.509Z,1.91
2023-02-28T00:11:39.213Z,1.88
2023-02-28T00:14:10.450Z,1.87
2023-02-28T00:16:39.270Z,1.83
2023-02-28T00:19:14.755Z,1.80
2023-02-28T00:21:44.416Z,1.84
2023-02-28T00:24:15.237Z,1.88
2023-02-28T00:26:43.925Z,1.82
2023-02-28T00:29:12.730Z,1.75
2023-02-28T00:31:41.591Z,1.71
2023-02-28T00:34:10.302Z,1.66
2023-02-28T00:36:39.469Z,1.64
2023-02-28T00:39:07.901Z,1.62
2023-02-28T00:41:36.596Z,1.67
2023-02-28T00:44:05.649Z,1.73
2023-02-28T00:46:34.841Z,1.65
2023-02-28T00:49:03.258Z,1.58
2023-02-28T00:51:32.287Z,1.55
2023-02-28T00:54:01.915Z,1.53
2023-02-28T00:56:31.040Z,1.49
2023-02-28T00:58:59.566Z,1.55
2023-02-28T01:01:28.569Z,1.62
2023-02-28T01:03:57.631Z,1.60
2023-02-28T01:06:28.861Z,1.58
2023-02-28T01:08:57.561Z,1.55
2023-02-28T01:11:27.071Z,1.49
2023-02-28T01:13:55.893Z,1.44
2023-02-28T01:16:24.856Z,1.41
2023-02-28T01:18:54.995Z,1.38
2023-02-28T01:21:23.566Z,1.42
2023-02-28T01:23:52.678Z,1.45
2023-02-28T01:26:23.249Z,1.42
2023-02-28T01:28:53.400Z,1.40
2023-02-28T01:31:22.687Z,1.38
2023-02-28T01:33:52.089Z,1.38
2023-02-28T01:36:24.499Z,1.34
2023-02-28T01:38:55.481Z,1.27
2023-02-28T01:41:32.650Z,1.24
2023-02-28T01:44:20.404Z,1.21
2023-02-28T01:46:49.358Z,1.13
2023-02-28T01:49:19.869Z,1.16
2023-02-28T01:51:56.146Z,1.13
2023-02-28T01:54:32.407Z,1.06
2023-02-28T01:57:05.394Z,1.05
2023-02-28T01:59:51.277Z,1.08
2023-02-28T02:02:23.625Z,0.96
2023-02-28T02:05:07.854Z,0.94
2023-02-28T02:07:42.620Z,0.83
2023-02-28T02:10:19.969Z,0.80
2023-02-28T02:12:54.564Z,0.75
2023-02-28T02:15:32.061Z,0.73
2023-02-28T02:18:12.619Z,0.80
2023-02-28T02:21:14.021Z,0.85
2023-02-28T02:23:48.256Z,0.74
2023-02-28T02:26:17.159Z,0.78
2023-02-28T02:28:51.567Z,0.80
2023-02-28T02:31:26.673Z,0.78
2023-02-28T02:34:27.189Z,0.84
2023-02-28T02:37:04.984Z,0.87
2023-02-28T02:39:46.621Z,0.90
2023-02-28T02:42:25.941Z,0.87
2023-02-28T02:45:03.552Z,0.86
2023-02-28T02:47:34.162Z,0.83
2023-02-28T02:50:06.554Z,0.85
2023-02-28T02:52:50.756Z,0.84
2023-02-28T02:55:21.817Z,0.84
2023-02-28T02:58:04.974Z,0.93
2023-02-28T03:00:42.621Z,0.87
2023-02-28T03:03:14.033Z,0.87
2023-02-28T03:05:52.545Z,0.87
2023-02-28T03:08:21.330Z,0.86
2023-02-28T03:11:05.411Z,0.87
2023-02-28T03:14:05.391Z,0.85
2023-02-28T03:16:37.862Z,0.75
2023-02-28T03:19:54.512Z,0.75
2023-02-28T03:22:56.395Z,0.53
2023-02-28T03:25:39.645Z,0.45
2023-02-28T03:28:24.810Z,0.42
2023-02-28T03:31:00.455Z,0.37
2023-02-28T03:33:40.033Z,0.45
2023-02-28T03:36:19.196Z,0.42
2023-02-28T03:38:55.743Z,0.36
2023-02-28T03:41:30.193Z,0.36
2023-02-28T03:44:06.958Z,0.34
2023-02-28T03:46:42.213Z,0.34
2023-02-28T03:49:26.276Z,0.31
2023-02-28T03:51:57.679Z,0.34
2023-02-28T03:54:37.483Z,0.47
2023-02-28T03:57:24.327Z,0.46
2023-02-28T04:00:00.835Z,0.42
2023-02-28T04:02:29.185Z,0.44
2023-02-28T04:04:58.737Z,0.46
2023-02-28T04:07:30.783Z,0.50
2023-02-28T04:10:01.395Z,0.54
2023-02-28T04:12:29.768Z,0.54
2023-02-28T04:14:58.566Z,0.54
2023-02-28T04:17:27.395Z,0.53
2023-02-28T04:19:58.646Z,0.50
2023-02-28T04:22:29.865Z,0.56
2023-02-28T04:24:58.201Z,0.62
2023-02-28T04:27:26.741Z,0.61
2023-02-28T04:29:56.752Z,0.61
2023-02-28T04:32:26.057Z,0.60
2023-02-28T04:34:55.016Z,0.55
2023-02-28T04:37:29.266Z,0.51
2023-02-28T04:39:57.722Z,0.51
2023-02-28T04:42:25.965Z,0.55
2023-02-28T04:44:54.347Z,0.51
2023-02-28T04:47:22.937Z,0.49
2023-02-28T04:49:51.324Z,0.45
2023-02-28T04:52:20.042Z,0.43
2023-02-28T04:54:49.209Z,0.42
2023-02-28T04:57:17.677Z,0.49
2023-02-28T04:59:45.981Z,0.54
2023-02-28T05:02:15.263Z,0.47
2023-02-28T05:04:44.001Z,0.44
2023-02-28T05:07:12.589Z,0.40
2023-02-28T13:24:34.704Z,39.25
2023-02-28T13:27:04.733Z,39.24
2023-02-28T13:29:37.709Z,39.68
2023-02-28T13:32:12.440Z,39.95
2023-02-28T13:35:09.268Z,40.15
2023-02-28T13:37:46.324Z,38.86
2023-02-28T13:40:14.574Z,37.91
2023-02-28T13:42:46.466Z,36.79
2023-02-28T13:45:15.329Z,35.76
2023-02-28T13:48:01.502Z,35.78
2023-02-28T13:50:36.674Z,34.45
2023-02-28T13:53:19.566Z,34.08
2023-02-28T13:55:54.613Z,34.95
2023-02-28T13:58:37.914Z,32.55
2023-02-28T14:01:34.091Z,32.22
2023-02-28T14:04:33.694Z,32.37
2023-02-28T14:07:06.490Z,33.50
2023-02-28T14:10:01.010Z,33.01
2023-02-28T14:12:51.461Z,33.06
2023-02-28T14:15:41.536Z,32.92
2023-02-28T14:18:27.079Z,31.00
2023-02-28T14:21:26.605Z,29.56
2023-02-28T14:24:24.191Z,28.39
2023-02-28T14:26:58.937Z,27.76
2023-02-28T14:29:52.065Z,27.41
2023-02-28T14:32:29.969Z,26.38
2023-02-28T14:35:19.019Z,27.13
2023-02-28T14:37:49.795Z,27.26
2023-02-28T14:40:26.894Z,28.02
2023-02-28T14:43:01.053Z,27.67
2023-02-28T14:45:33.046Z,29.14
2023-02-28T14:48:05.271Z,29.27
2023-02-28T14:50:38.871Z,29.52
2023-02-28T14:53:16.958Z,30.29
2023-02-28T14:55:50.472Z,29.87
2023-02-28T14:58:28.876Z,30.65
2023-02-28T15:01:02.693Z,31.40
2023-02-28T15:03:33.421Z,31.61
2023-02-28T15:06:05.354Z,31.33
2023-02-28T15:08:37.398Z,31.29
2023-02-28T15:11:08.298Z,31.26
2023-02-28T15:13:47.508Z,31.03
2023-02-28T15:16:26.393Z,31.28
2023-02-28T15:19:00.679Z,30.78
2023-02-28T15:21:34.761Z,31.14
2023-02-28T15:24:54.634Z,30.94
2023-02-28T15:27:33.487Z,26.88
2023-02-28T15:30:07.616Z,23.86
2023-02-28T15:32:40.255Z,21.88
2023-02-28T15:35:29.887Z,20.17
2023-02-28T15:38:16.888Z,18.82
2023-02-28T15:40:54.819Z,17.71
2023-02-28T15:43:35.174Z,16.76
2023-02-28T15:46:07.663Z,15.91
2023-02-28T15:48:39.306Z,15.35
2023-02-28T15:51:16.595Z,14.81
2023-02-28T15:54:01.287Z,14.26
2023-02-28T15:56:30.511Z,13.68
2023-02-28T15:59:02.270Z,13.27
2023-02-28T16:01:43.562Z,12.88
2023-02-28T16:04:21.510Z,12.55
2023-02-28T16:06:55.862Z,12.33
2023-02-28T16:09:25.629Z,12.13
2023-02-28T16:11:58.117Z,11.97
2023-02-28T16:14:28.894Z,11.78
2023-02-28T16:17:06.594Z,11.62
2023-02-28T16:19:34.986Z,11.41
2023-02-28T16:22:03.703Z,11.30
2023-02-28T16:24:32.046Z,11.16
2023-02-28T16:27:01.778Z,11.05
2023-02-28T16:29:35.822Z,10.93
2023-02-28T16:32:07.219Z,10.77
2023-02-28T16:34:35.821Z,10.67
2023-02-28T16:37:06.652Z,10.55
2023-02-28T16:39:35.307Z,10.37
2023-02-28T16:42:04.125Z,10.21
2023-02-28T16:44:37.025Z,10.11
2023-02-28T16:47:05.917Z,9.98
2023-02-28T16:49:34.539Z,9.88
2023-02-28T16:52:03.158Z,9.79
2023-02-28T16:54:31.638Z,9.71
2023-02-28T16:57:01.184Z,9.62
2023-02-28T16:59:31.043Z,9.50
2023-02-28T17:02:00.088Z,9.40
2023-02-28T17:04:30.394Z,9.31
2023-02-28T17:06:59.672Z,9.23
2023-02-28T17:09:36.720Z,9.16
2023-02-28T17:12:10.634Z,9.03
2023-02-28T17:14:39.252Z,8.95
2023-02-28T17:17:08.773Z,8.85
2023-02-28T17:19:40.084Z,8.73
2023-02-28T17:22:09.637Z,8.56
2023-02-28T17:24:38.455Z,8.08
2023-02-28T17:27:08.910Z,7.93
2023-02-28T17:29:41.675Z,7.87
2023-02-28T17:32:17.916Z,7.68
2023-02-28T17:34:47.290Z,7.27
2023-02-28T17:37:18.335Z,7.22
2023-02-28T17:39:46.978Z,7.16
2023-02-28T17:42:15.716Z,7.10
2023-02-28T17:44:44.121Z,6.89
2023-02-28T17:47:13.606Z,6.75
2023-02-28T17:49:42.899Z,6.66
2023-02-28T17:52:11.951Z,6.51
2023-02-28T17:54:40.588Z,6.27
2023-02-28T17:57:16.009Z,6.17
2023-02-28T17:59:45.015Z,6.05
2023-02-28T18:02:14.853Z,6.05
2023-02-28T18:04:43.467Z,5.88
2023-02-28T18:07:13.155Z,5.58
2023-02-28T18:09:41.351Z,5.25
2023-02-28T18:12:10.453Z,4.95
2023-02-28T18:14:39.013Z,5.01
2023-02-28T18:17:13.576Z,4.71
2023-02-28T18:19:42.361Z,4.60
2023-02-28T18:22:11.142Z,4.80
2023-02-28T18:24:39.907Z,4.82
2023-02-28T18:27:08.878Z,4.82
2023-02-28T18:29:41.816Z,4.87
2023-02-28T18:32:10.782Z,4.89
2023-02-28T18:34:39.611Z,4.97
2023-02-28T18:37:08.159Z,5.04
2023-02-28T18:39:36.732Z,5.13
2023-02-28T18:42:05.322Z,5.20
2023-02-28T18:44:38.401Z,5.25
2023-02-28T18:47:10.141Z,5.27
2023-02-28T18:49:38.626Z,5.32
2023-02-28T18:52:07.344Z,5.37
2023-02-28T18:54:36.665Z,5.38
2023-02-28T18:57:05.429Z,5.37
2023-02-28T18:59:33.886Z,5.35
2023-02-28T19:02:02.831Z,5.32
2023-02-28T19:04:32.156Z,5.28
2023-02-28T19:07:01.745Z,5.28
2023-02-28T19:09:30.737Z,5.29
2023-02-28T19:12:00.003Z,5.28
2023-02-28T19:14:28.691Z,5.25
2023-02-28T19:16:57.018Z,5.23
2023-02-28T19:19:25.525Z,5.24
2023-02-28T19:21:55.497Z,5.22
2023-02-28T19:24:24.584Z,5.17
2023-02-28T19:26:53.122Z,5.15
2023-02-28T19:29:22.158Z,5.10
2023-02-28T19:31:51.011Z,5.10
2023-02-28T19:34:20.004Z,5.07
2023-02-28T19:36:48.578Z,5.05
2023-02-28T19:39:19.196Z,5.02
2023-02-28T19:41:50.721Z,4.91
2023-02-28T19:44:19.205Z,4.82
2023-02-28T19:46:48.603Z,4.64
2023-02-28T19:49:18.777Z,4.62
2023-02-28T19:51:47.406Z,4.59
2023-02-28T19:54:21.136Z,4.61
2023-02-28T19:56:49.707Z,4.62
2023-02-28T19:59:25.963Z,4.61
2023-02-28T20:01:59.858Z,4.53
2023-02-28T20:04:28.950Z,4.53
2023-02-28T20:06:57.512Z,4.46
2023-02-28T20:09:26.591Z,4.40
2023-02-28T20:11:59.578Z,4.31
2023-02-28T20:14:28.089Z,4.26
2023-02-28T20:16:58.218Z,4.27
2023-02-28T20:19:27.215Z,4.26
2023-02-28T20:21:55.993Z,4.25
2023-02-28T20:24:26.279Z,4.28
2023-02-28T20:26:56.029Z,4.29
2023-02-28T20:29:25.186Z,4.29
2023-02-28T20:31:58.901Z,4.29
2023-02-28T20:34:27.444Z,4.26
2023-02-28T20:36:58.998Z,4.27
2023-02-28T20:39:27.421Z,4.22
2023-02-28T20:41:57.138Z,4.19
2023-02-28T20:44:26.102Z,4.13
2023-02-28T20:46:55.378Z,4.07
2023-02-28T20:49:24.301Z,4.03
2023-02-28T20:51:52.634Z,4.00
2023-02-28T20:54:22.046Z,3.97
2023-02-28T20:56:50.745Z,3.93
2023-02-28T20:59:21.480Z,3.89
2023-02-28T21:01:50.156Z,3.86
2023-02-28T21:04:19.086Z,3.84
2023-02-28T21:06:52.135Z,3.84
2023-02-28T21:09:20.593Z,3.83
2023-02-28T21:11:49.633Z,3.83
2023-02-28T21:14:18.531Z,3.80
2023-02-28T21:16:47.281Z,3.77
2023-02-28T21:19:21.879Z,3.72
2023-02-28T21:21:54.746Z,3.70
2023-02-28T21:24:23.085Z,3.66
2023-02-28T21:26:53.076Z,3.63
2023-02-28T21:29:21.426Z,3.59
2023-02-28T21:31:55.053Z,3.54
2023-02-28T21:34:23.846Z,3.49
2023-02-28T21:36:52.414Z,3.46
2023-02-28T21:39:30.301Z,3.42
2023-02-28T21:42:04.310Z,3.33
2023-02-28T21:44:34.930Z,3.28
2023-02-28T21:47:03.433Z,3.17
2023-02-28T21:49:33.007Z,3.05
2023-02-28T21:52:02.057Z,3.08
2023-02-28T21:54:30.453Z,3.06
2023-02-28T21:57:00.401Z,3.06
2023-02-28T21:59:32.344Z,3.04
2023-02-28T22:02:01.078Z,3.02
2023-02-28T22:04:29.455Z,2.88
2023-02-28T22:06:58.306Z,2.85
2023-02-28T22:09:28.024Z,2.89
2023-02-28T22:11:58.156Z,2.93
2023-02-28T22:14:27.079Z,2.88
2023-02-28T22:16:57.336Z,2.88
2023-02-28T22:19:28.381Z,2.66
2023-02-28T22:22:01.162Z,2.32
2023-02-28T22:24:29.962Z,2.29
2023-02-28T22:26:58.881Z,2.41
2023-02-28T22:29:27.223Z,2.42
2023-02-28T22:31:55.972Z,2.46
2023-02-28T22:34:24.118Z,2.53
2023-02-28T22:36:52.613Z,2.58
2023-02-28T22:39:21.524Z,2.60
2023-02-28T22:41:50.215Z,2.62
2023-02-28T22:44:23.231Z,2.64
2023-02-28T22:47:01.029Z,2.55
2023-02-28T22:49:29.902Z,2.50
2023-02-28T22:51:58.189Z,2.55
2023-02-28T22:54:29.532Z,2.61
2023-02-28T22:56:58.174Z,2.65
2023-02-28T22:59:27.646Z,2.70
2023-02-28T23:01:56.442Z,2.71
2023-02-28T23:04:26.995Z,2.73
2023-02-28T23:06:55.704Z,2.72
2023-02-28T23:09:25.680Z,2.70
2023-02-28T23:11:54.670Z,2.67
2023-02-28T23:14:23.268Z,2.59
2023-02-28T23:16:55.157Z,2.50
2023-02-28T23:19:30.474Z,2.49
2023-02-28T23:22:00.548Z,2.35
2023-02-28T23:24:33.056Z,2.30
2023-02-28T23:27:05.096Z,2.25
2023-02-28T23:29:34.479Z,2.19
2023-02-28T23:32:03.470Z,2.16
2023-02-28T23:34:34.530Z,1.98
2023-02-28T23:37:03.015Z,1.98
2023-02-28T23:39:32.043Z,1.99
2023-02-28T23:42:00.513Z,2.01
2023-02-28T23:44:29.519Z,2.10
2023-02-28T23:46:57.890Z,2.18
2023-02-28T23:49:29.243Z,2.26
2023-02-28T23:51:57.965Z,2.32
2023-02-28T23:54:30.562Z,2.38
2023-02-28T23:56:59.044Z,2.39
2023-02-28T23:59:27.799Z,2.40
